Time;durP1;ratioP1;P1;durP2;ratioP2;P2;SDS_P1;SDS_P2;PMS_P1;PMS_P2;Temp;Humidity;BMP_temperature;BMP_pressure;BME280_temperature;BME280_humidity;BME280_pressure;Samples;Min_cycle;Max_cycle;Signal;HPM_P1;HPM_P2
2023/10/18 00:00:34;;;;;;;1999.90;999.90;;;;;;;5.96;100.00;97257.19;18628382;31;20048;-57
2023/10/18 00:10:37;;;;;;;1999.90;999.90;;;;;;;5.85;100.00;97240.16;18627706;31;20455;-54
2023/10/18 00:20:40;;;;;;;1999.90;999.90;;;;;;;5.72;100.00;97235.16;18626762;31;20096;-56
2023/10/18 00:30:42;;;;;;;1999.90;999.90;;;;;;;5.70;100.00;97247.97;18626012;31;20094;-55
2023/10/18 00:40:46;;;;;;;1999.90;999.90;;;;;;;5.69;100.00;97228.41;18625642;31;20052;-56
2023/10/18 00:50:52;;;;;;;1999.90;999.90;;;;;;;5.65;100.00;97224.59;18611517;31;20104;-55
2023/10/18 01:00:56;;;;;;;1999.90;999.90;;;;;;;5.51;100.00;97217.97;18618692;31;20048;-55
2023/10/18 01:11:07;;;;;;;1999.90;999.90;;;;;;;5.62;100.00;97203.66;18624901;31;20056;-55
2023/10/18 01:21:14;;;;;;;1999.90;999.90;;;;;;;5.74;100.00;97200.81;18624774;31;20063;-52
2023/10/18 01:31:16;;;;;;;1999.90;999.90;;;;;;;5.78;100.00;97161.69;18624401;31;20100;-56
2023/10/18 01:41:27;;;;;;;1999.90;999.90;;;;;;;5.91;100.00;97172.03;18628171;31;20053;-56
2023/10/18 01:51:29;;;;;;;1999.90;999.90;;;;;;;6.18;100.00;97175.81;18636346;31;20067;-54
2023/10/18 02:01:32;;;;;;;1999.90;999.90;;;;;;;6.21;100.00;97164.59;18635125;31;20103;-55
2023/10/18 02:11:35;;;;;;;1999.90;999.90;;;;;;;6.38;100.00;97145.69;18635098;31;20086;-55
2023/10/18 02:21:40;;;;;;;1999.90;999.90;;;;;;;6.43;100.00;97133.09;18634687;31;20040;-56
2023/10/18 02:31:43;;;;;;;1999.90;999.90;;;;;;;6.50;100.00;97115.97;18634053;31;20056;-56
2023/10/18 02:41:45;;;;;;;1999.90;999.90;;;;;;;6.56;100.00;97094.25;18632785;31;20071;-56
2023/10/18 02:51:49;;;;;;;1999.90;999.90;;;;;;;6.60;100.00;97091.84;18625144;31;20376;-56
2023/10/18 03:01:54;;;;;;;1999.90;999.90;;;;;;;6.61;100.00;97096.97;18631653;31;20060;-55
2023/10/18 03:11:57;;;;;;;1999.90;999.90;;;;;;;6.51;100.00;97077.28;18631250;31;20071;-55
2023/10/18 03:22:03;;;;;;;1999.90;999.90;;;;;;;6.50;100.00;97062.25;18630367;31;20068;-56
2023/10/18 03:32:08;;;;;;;1999.90;999.90;;;;;;;6.54;100.00;97060.69;18630312;31;20075;-54
2023/10/18 03:42:18;;;;;;;1999.90;999.90;;;;;;;6.74;100.00;97060.81;18629076;31;20104;-56
2023/10/18 03:52:21;;;;;;;1999.90;999.90;;;;;;;6.83;100.00;97065.69;18628884;31;20082;-55
2023/10/18 04:12:27;;;;;;;1999.90;999.90;;;;;;;6.67;100.00;97052.13;18613278;31;20361;-56
2023/10/18 04:22:29;;;;;;;1999.90;999.90;;;;;;;6.59;100.00;97036.50;18626821;31;20052;-57
2023/10/18 04:32:32;;;;;;;1999.90;999.90;;;;;;;6.36;100.00;97013.53;18626458;31;20345;-54
2023/10/18 04:42:36;;;;;;;1999.90;999.90;;;;;;;6.34;100.00;96999.56;18625440;31;20055;-56
2023/10/18 04:52:41;;;;;;;1999.90;999.90;;;;;;;6.53;100.00;96965.06;18625524;31;20061;-55
2023/10/18 05:02:45;;;;;;;1999.90;999.90;;;;;;;6.69;100.00;96964.06;18625416;31;20358;-55
2023/10/18 05:13:19;;;;;;;1999.90;999.90;;;;;;;6.69;100.00;96957.88;18611401;31;20091;-55
2023/10/18 05:23:19;;;;;;;1999.90;999.90;;;;;;;6.82;100.00;96973.50;18637915;31;20070;-57
2023/10/18 05:43:45;;;;;;;1999.90;999.90;;;;;;;7.44;100.00;96947.59;18635391;31;20480;-56
2023/10/18 05:53:48;;;;;;;;;;;;;;;7.52;100.00;96932.78;18636622;31;20053;-56
2023/10/18 06:03:52;;;;;;;1999.90;999.90;;;;;;;7.58;100.00;96925.53;18621098;31;19944;-56
2023/10/18 06:13:55;;;;;;;1999.90;999.90;;;;;;;7.63;100.00;96917.44;18634682;31;20476;-56
2023/10/18 06:23:59;;;;;;;1999.90;999.90;;;;;;;7.74;100.00;96927.16;18619068;31;20060;-56
2023/10/18 06:34:04;;;;;;;1999.90;999.90;;;;;;;7.90;100.00;96924.44;18633326;31;20388;-57
2023/10/18 06:44:11;;;;;;;;;;;;;;;8.09;100.00;96928.19;18632906;31;20116;-56
2023/10/18 06:54:13;;;;;;;1999.90;999.90;;;;;;;8.28;100.00;96927.63;18618618;31;19958;-56
2023/10/18 07:04:27;;;;;;;1999.90;999.90;;;;;;;8.40;100.00;96914.66;18631488;31;20072;-56
2023/10/18 07:14:31;;;;;;;1999.90;999.90;;;;;;;8.55;100.00;96918.38;18631404;31;20424;-56
2023/10/18 07:24:38;;;;;;;1999.90;999.90;;;;;;;8.68;100.00;96898.94;18623573;31;20432;-56
2023/10/18 07:45:35;;;;;;;1999.90;999.90;;;;;;;8.87;100.00;96903.72;18628642;31;20083;-55
2023/10/18 07:55:41;;;;;;;1999.90;999.90;;;;;;;8.95;100.00;96908.53;18628406;31;20048;-56
2023/10/18 08:05:50;;;;;;;1999.90;999.90;;;;;;;9.14;100.00;96901.41;18628100;31;20040;-56
2023/10/18 08:16:01;;;;;;;1999.90;999.90;;;;;;;9.19;100.00;96891.66;18613475;31;20068;-56
2023/10/18 08:26:04;;;;;;;1999.90;999.90;;;;;;;9.39;100.00;96878.03;18626767;31;20120;-57
2023/10/18 08:36:09;;;;;;;1999.90;999.90;;;;;;;9.54;100.00;96865.47;18611858;31;20056;-55
2023/10/18 08:46:12;;;;;;;1999.90;999.90;;;;;;;9.81;100.00;96864.97;18625769;31;20064;-56
2023/10/18 08:56:20;;;;;;;1999.90;999.90;;;;;;;9.95;100.00;96859.72;18624966;31;20052;-56
2023/10/18 09:06:30;;;;;;;1999.90;999.90;;;;;;;10.02;100.00;96857.50;18625623;31;20096;-56
2023/10/18 09:16:40;;;;;;;1999.90;999.90;;;;;;;10.09;100.00;96838.25;18598262;31;20148;-57
2023/10/18 09:26:46;;;;;;;1999.90;999.90;;;;;;;10.33;100.00;96833.62;18625062;31;20057;-56
2023/10/18 09:36:56;;;;;;;1999.90;999.90;;;;;;;10.68;100.00;96814.56;18624384;31;20092;-56
2023/10/18 09:47:00;;;;;;;1999.90;999.90;;;;;;;10.92;100.00;96800.16;18623733;31;20048;-56
2023/10/18 09:57:06;;;;;;;1999.90;999.90;;;;;;;11.13;100.00;96801.47;18610054;31;20410;-57
2023/10/18 10:07:37;;;;;;;1999.90;999.90;;;;;;;11.25;100.00;96797.47;18612688;31;20086;-57
2023/10/18 10:17:55;;;;;;;1999.90;999.90;;;;;;;11.28;100.00;96786.09;18634777;31;20065;-57
2023/10/18 10:28:37;;;;;;;1999.90;999.90;;;;;;;11.28;100.00;96794.22;18608102;31;20376;-57
2023/10/18 10:38:28;;;;;;;1999.90;999.90;;;;;;;11.29;100.00;96783.09;18619278;31;20162;-58
2023/10/18 10:48:32;;;;;;;1999.90;999.90;;;;;;;11.55;100.00;96788.03;18633119;31;20053;-57
2023/10/18 10:58:38;;;;;;;1999.90;999.90;;;;;;;11.93;100.00;96774.34;18632264;31;20083;-57
2023/10/18 11:08:45;;;;;;;1999.90;999.90;;;;;;;12.19;100.00;96744.84;18631457;31;20060;-56
2023/10/18 11:18:49;;;;;;;1999.90;999.90;;;;;;;12.32;100.00;96732.41;18631446;31;20369;-57
2023/10/18 11:28:56;;;;;;;1999.90;999.90;;;;;;;12.13;100.00;96710.84;18630333;31;20108;-57
2023/10/18 11:49:21;;;;;;;1999.90;999.90;;;;;;;12.20;100.00;96678.72;18629117;31;20334;-57
2023/10/18 11:59:26;;;;;;;1999.90;999.90;;;;;;;12.49;100.00;96639.56;18613867;31;20107;-57
2023/10/18 12:09:30;;;;;;;;;;;;;;;12.21;100.00;96628.03;18627913;31;20361;-57
2023/10/18 12:19:37;;;;;;;1999.90;999.90;;;;;;;12.16;100.00;96649.81;18627748;31;19974;-57
2023/10/18 12:29:40;;;;;;;1999.90;999.90;;;;;;;12.06;100.00;96614.81;18626256;31;20424;-57
2023/10/18 12:39:46;;;;;;;1999.90;999.90;;;;;;;11.88;100.00;96652.56;18626033;31;20060;-57
2023/10/18 12:49:52;;;;;;;1999.90;999.90;;;;;;;11.71;100.00;96639.63;18611670;31;20049;-55
2023/10/18 13:10:03;;;;;;;1999.90;999.90;;;;;;;11.58;100.00;96660.22;18625324;31;20068;-56
2023/10/18 13:20:14;;;;;;;1999.90;999.90;;;;;;;11.62;100.00;96665.81;18624673;31;20048;-57
2023/10/18 13:30:32;;;;;;;1999.90;999.90;;;;;;;11.17;100.00;96636.66;18624595;31;20201;-58
2023/10/18 13:40:36;;;;;;;1999.90;999.90;;;;;;;11.41;100.00;96578.81;18619233;31;20073;-58
2023/10/18 13:50:39;;;;;;;1999.90;999.90;;;;;;;11.67;100.00;96603.44;18629489;31;20048;-58
2023/10/18 14:00:43;;;;;;;1999.90;999.90;;;;;;;11.85;100.00;96626.91;18635679;31;20069;-56
2023/10/18 14:10:47;;;;;;;1999.90;999.90;;;;;;;11.82;100.00;96594.19;18635255;31;20396;-58
2023/10/18 14:20:51;;;;;;;1999.90;999.90;;;;;;;11.71;100.00;96582.78;18620047;31;20105;-57
2023/10/18 14:30:57;;;;;;;1999.90;999.90;;;;;;;11.58;100.00;96556.53;18634004;31;20064;-58
2023/10/18 14:41:03;;;;;;;1999.90;999.90;;;;;;;11.42;100.00;96542.53;18632981;31;20052;-58
2023/10/18 14:51:24;;;;;;;1999.90;999.90;;;;;;;11.56;100.00;96532.47;18632342;31;20426;-57
2023/10/18 15:01:27;;;;;;;1999.90;999.90;;;;;;;11.39;100.00;96537.69;18632224;31;20476;-57
2023/10/18 15:11:32;;;;;;;1999.90;999.90;;;;;;;11.39;100.00;96519.56;18631443;31;20060;-57
2023/10/18 15:21:35;;;;;;;1999.90;999.90;;;;;;;11.38;100.00;96507.16;18630665;31;20097;-57
2023/10/18 15:31:38;;;;;;;1999.90;999.90;;;;;;;11.39;100.00;96500.63;18615858;31;20056;-57
2023/10/18 15:41:44;;;;;;;1999.90;999.90;;;;;;;11.45;100.00;96466.94;18629307;31;20114;-57
2023/10/18 15:51:51;;;;;;;1999.90;999.90;;;;;;;11.39;100.00;96460.03;18629148;31;20056;-57
2023/10/18 16:01:54;;;;;;;1999.90;999.90;;;;;;;11.26;100.00;96448.13;18627682;31;20095;-57
2023/10/18 16:12:02;;;;;;;1999.90;999.90;;;;;;;11.15;100.00;96420.50;18613470;31;20119;-58
2023/10/18 16:22:05;;;;;;;1999.90;999.90;;;;;;;11.00;100.00;96421.66;18626966;31;20074;-58
2023/10/18 16:32:08;;;;;;;1999.90;999.90;;;;;;;10.94;100.00;96428.25;18626382;31;20090;-58
2023/10/18 16:42:11;;;;;;;1999.90;999.90;;;;;;;10.79;100.00;96421.25;18626327;31;20047;-58
2023/10/18 16:52:15;;;;;;;1999.90;999.90;;;;;;;10.77;100.00;96409.97;18625739;31;20139;-58
2023/10/18 17:02:18;;;;;;;1999.90;999.90;;;;;;;10.63;100.00;96399.16;18625810;31;20136;-57
2023/10/18 17:12:21;;;;;;;1999.90;999.90;;;;;;;10.59;100.00;96411.69;18631319;31;20155;-57
2023/10/18 17:22:24;;;;;;;1999.90;999.90;;;;;;;10.55;100.00;96401.75;18631624;31;20155;-57
2023/10/18 17:32:28;;;;;;;1999.90;999.90;;;;;;;10.51;100.00;96413.19;18637549;31;20082;-57
2023/10/18 17:42:31;;;;;;;1999.90;999.90;;;;;;;10.45;100.00;96403.56;18636651;31;20056;-58
2023/10/18 17:52:44;;;;;;;1999.90;999.90;;;;;;;10.46;100.00;96398.97;18636686;31;20372;-57
2023/10/18 18:02:51;;;;;;;1999.90;999.90;;;;;;;10.38;100.00;96397.75;18635877;31;20056;-57
2023/10/18 18:12:57;;;;;;;1999.90;999.90;;;;;;;10.33;100.00;96392.41;18635663;31;20084;-57
2023/10/18 18:23:05;;;;;;;1999.90;999.90;;;;;;;10.39;100.00;96398.53;18627968;31;20052;-58
2023/10/18 18:33:07;;;;;;;1999.90;999.90;;;;;;;10.36;100.00;96393.75;18620549;31;20082;-56
2023/10/18 18:43:10;;;;;;;1999.90;999.90;;;;;;;10.40;100.00;96378.53;18632979;31;20052;-58
2023/10/18 18:53:13;;;;;;;1999.90;999.90;;;;;;;10.44;100.00;96368.72;18618592;31;20512;-57
2023/10/18 19:03:18;;;;;;;1999.90;999.90;;;;;;;10.45;100.00;96371.13;18632073;31;20060;-57
2023/10/18 19:13:22;;;;;;;1999.90;999.90;;;;;;;10.48;100.00;96367.84;18617354;31;20049;-57
2023/10/18 19:23:26;;;;;;;1999.90;999.90;;;;;;;10.49;100.00;96357.81;18630760;31;20060;-58
2023/10/18 19:33:31;;;;;;;1999.90;999.90;;;;;;;10.41;100.00;96367.41;18629804;31;20491;-56
2023/10/18 19:43:35;;;;;;;1999.90;999.90;;;;;;;10.37;100.00;96374.53;18615023;31;20068;-57
2023/10/18 19:53:39;;;;;;;1999.90;999.90;;;;;;;10.34;100.00;96380.50;18628835;31;20064;-58
2023/10/18 20:03:41;;;;;;;1999.90;999.90;;;;;;;10.40;100.00;96373.94;18607384;31;20052;-57
2023/10/18 20:13:44;;;;;;;1999.90;999.90;;;;;;;10.42;100.00;96384.44;18627869;31;20084;-57
2023/10/18 20:23:47;;;;;;;1999.90;999.90;;;;;;;10.42;100.00;96387.16;18612741;31;20056;-57
2023/10/18 20:33:50;;;;;;;1999.90;999.90;;;;;;;10.43;100.00;96388.72;18626822;31;20096;-58
2023/10/18 20:43:53;;;;;;;1999.90;999.90;;;;;;;10.56;100.00;96387.16;18610176;31;20056;-58
2023/10/18 20:53:58;;;;;;;1999.90;999.90;;;;;;;10.60;100.00;96393.56;18611395;31;20049;-58
2023/10/18 21:04:01;;;;;;;1999.90;999.90;;;;;;;10.55;100.00;96361.22;18619642;31;20072;-58
2023/10/18 21:14:05;;;;;;;1999.90;999.90;;;;;;;10.54;100.00;96362.31;18625085;31;20367;-58
2023/10/18 21:24:08;;;;;;;1999.90;999.90;;;;;;;10.49;100.00;96374.81;18624824;31;20052;-58
2023/10/18 21:34:10;;;;;;;1999.90;999.90;;;;;;;10.44;100.00;96353.34;18610201;31;20112;-57
2023/10/18 21:44:13;;;;;;;1999.90;999.90;;;;;;;10.46;100.00;96367.31;18623848;31;20049;-58
2023/10/18 21:54:16;;;;;;;1999.90;999.90;;;;;;;10.47;100.00;96352.72;18624572;31;20079;-58
2023/10/18 22:04:19;;;;;;;1999.90;999.90;;;;;;;10.38;100.00;96335.59;18635657;31;20053;-58
2023/10/18 22:14:29;;;;;;;1999.90;999.90;;;;;;;10.37;100.00;96331.31;18635405;31;20424;-59
2023/10/18 22:24:41;;;;;;;1999.90;999.90;;;;;;;10.37;100.00;96338.62;18620045;31;20393;-58
2023/10/18 22:34:47;;;;;;;1999.90;999.90;;;;;;;10.42;100.00;96303.41;18634208;31;20099;-58
2023/10/18 22:45:08;;;;;;;1999.90;999.90;;;;;;;10.44;100.00;96296.59;18633043;31;20071;-58
2023/10/18 22:55:19;;;;;;;1999.90;999.90;;;;;;;10.48;100.00;96281.37;18632946;31;20432;-58
2023/10/18 23:05:27;;;;;;;1999.90;999.90;;;;;;;10.56;100.00;96258.22;18632172;31;20337;-58
2023/10/18 23:15:47;;;;;;;1999.90;999.90;;;;;;;10.58;100.00;96249.78;18631169;31;20063;-58
2023/10/18 23:36:27;;;;;;;1999.90;999.90;;;;;;;10.63;100.00;96253.22;18612151;31;20060;-58
2023/10/18 23:46:36;;;;;;;1999.90;999.90;;;;;;;10.73;100.00;96222.44;18629233;31;20044;-58
2023/10/18 23:56:40;;;;;;;1999.90;999.90;;;;;;;10.72;100.00;96218.13;18629012;31;20448;-58
